Time;durP1;ratioP1;P1;durP2;ratioP2;P2;SDS_P1;SDS_P2;PMS_P1;PMS_P2;Temp;Humidity;BMP_temperature;BMP_pressure;BME280_temperature;BME280_humidity;BME280_pressure;Samples;Min_cycle;Max_cycle;Signal;HPM_P1;HPM_P2
2023/03/03 00:04:20;;;;;;;489.48;52.55;;;;;;;-0.17;100.00;99003.31;15293029;19;20082;-44
2023/03/03 00:09:44;;;;;;;646.78;64.78;;;;;;;-0.26;100.00;99000.28;15298033;19;20014;-43
2023/03/03 00:15:16;;;;;;;696.08;59.13;;;;;;;-0.26;100.00;99001.16;15293253;19;20014;-43
2023/03/03 00:20:47;;;;;;;347.95;50.75;;;;;;;-0.27;100.00;98995.91;15293804;19;20021;-43
2023/03/03 00:26:22;;;;;;;602.33;53.22;;;;;;;-0.39;100.00;99000.91;15294624;19;20014;-45
2023/03/03 00:31:46;;;;;;;660.35;58.03;;;;;;;-0.43;100.00;99003.78;15288192;19;20043;-42
2023/03/03 00:37:27;;;;;;;557.90;58.05;;;;;;;-0.52;100.00;99005.97;15288966;19;20022;-42
2023/03/03 00:42:56;;;;;;;498.13;53.80;;;;;;;-0.56;100.00;99008.84;15289368;19;20019;-45
2023/03/03 00:48:25;;;;;;;491.05;52.55;;;;;;;-0.63;100.00;99009.13;15292498;19;20081;-47
2023/03/03 00:53:52;;;;;;;604.47;56.80;;;;;;;-0.71;100.00;99013.13;15289409;19;20018;-47
2023/03/03 00:59:17;;;;;;;427.20;49.45;;;;;;;-0.71;100.00;99000.72;15291105;19;20077;-47
2023/03/03 01:04:50;;;;;;;391.15;49.10;;;;;;;-0.74;100.00;99002.66;15286193;19;20030;-45
2023/03/03 01:10:18;;;;;;;415.67;44.75;;;;;;;-0.75;100.00;98991.22;15285398;19;20551;-46
2023/03/03 01:15:43;;;;;;;536.40;46.55;;;;;;;-0.87;100.00;98987.41;15285121;19;20021;-43
2023/03/03 01:21:08;;;;;;;413.13;45.15;;;;;;;-0.87;100.00;98989.16;15289542;19;20015;-44
2023/03/03 01:26:35;;;;;;;385.10;42.85;;;;;;;-1.00;100.00;99000.34;15290338;19;20185;-44
2023/03/03 01:32:00;;;;;;;371.65;48.13;;;;;;;-1.04;100.00;99011.16;15284251;19;20108;-44
2023/03/03 01:37:25;;;;;;;329.73;43.75;;;;;;;-1.09;100.00;99016.66;14776063;19;10000082;-45
2023/03/03 01:42:53;;;;;;;319.00;47.03;;;;;;;-1.12;100.00;99014.19;15286711;19;20010;-44
2023/03/03 01:48:22;;;;;;;270.17;46.50;;;;;;;-1.22;100.00;99023.44;15288526;19;20078;-43
2023/03/03 01:53:51;;;;;;;287.52;49.13;;;;;;;-1.26;100.00;99020.97;15284512;19;20033;-45
2023/03/03 01:59:21;;;;;;;307.77;42.85;;;;;;;-1.27;100.00;99021.03;15289710;19;20070;-44
2023/03/03 02:04:47;;;;;;;223.85;43.30;;;;;;;-1.29;100.00;99010.53;15280157;19;20031;-44
2023/03/03 02:10:14;;;;;;;373.45;42.80;;;;;;;-1.38;100.00;98997.75;15289925;19;20018;-44
2023/03/03 02:15:42;;;;;;;282.38;44.20;;;;;;;-1.42;100.00;98998.81;15284576;19;20014;-44
2023/03/03 02:21:14;;;;;;;280.45;45.90;;;;;;;-1.38;100.00;98995.13;15285726;19;20018;-44
2023/03/03 02:26:43;;;;;;;189.93;42.17;;;;;;;-1.33;100.00;98986.97;15299995;19;20371;-44
2023/03/03 02:32:08;;;;;;;146.73;38.47;;;;;;;-1.32;100.00;98993.97;15297432;19;20018;-45
2023/03/03 02:37:33;;;;;;;205.90;35.72;;;;;;;-1.34;100.00;98991.38;15293561;19;20011;-44
2023/03/03 02:43:01;;;;;;;281.63;35.53;;;;;;;-1.40;100.00;98991.69;15296976;19;20407;-44
2023/03/03 02:48:26;;;;;;;148.85;33.47;;;;;;;-1.36;100.00;98977.41;15299942;19;20022;-47
2023/03/03 02:53:51;;;;;;;155.57;35.58;;;;;;;-1.38;100.00;98984.53;15297106;19;20018;-44
2023/03/03 02:59:20;;;;;;;148.85;33.22;;;;;;;-1.41;100.00;98998.72;15297837;19;20018;-45
2023/03/03 03:04:58;;;;;;;236.23;33.40;;;;;;;-1.43;100.00;98997.09;15293141;19;20022;-44
2023/03/03 03:10:23;;;;;;;105.85;32.97;;;;;;;-1.47;100.00;98996.38;15296848;19;20100;-44
2023/03/03 03:15:53;;;;;;;166.30;31.65;;;;;;;-1.51;100.00;98983.41;15294449;19;20105;-43
2023/03/03 03:21:18;;;;;;;250.43;35.03;;;;;;;-1.69;100.00;98988.59;15298462;19;20123;-44
2023/03/03 03:26:43;;;;;;;303.88;36.80;;;;;;;-1.81;100.00;99002.34;15297741;19;20476;-43
2023/03/03 03:32:13;;;;;;;199.18;39.85;;;;;;;-1.86;100.00;99014.00;15295788;19;20081;-45
2023/03/03 03:37:37;;;;;;;191.32;38.60;;;;;;;-1.82;100.00;99012.06;15291989;19;20018;-43
2023/03/03 03:43:02;;;;;;;190.60;37.17;;;;;;;-1.81;100.00;99012.91;15288745;19;20024;-45
2023/03/03 03:48:29;;;;;;;266.95;39.75;;;;;;;-1.77;100.00;99001.28;15296078;19;20026;-45
2023/03/03 03:53:56;;;;;;;219.50;36.28;;;;;;;-1.80;100.00;98983.81;15289028;19;20010;-46
2023/03/03 03:59:22;;;;;;;134.65;34.80;;;;;;;-1.79;100.00;98980.25;15289362;19;20013;-47
2023/03/03 04:04:56;;;;;;;300.38;35.30;;;;;;;-1.78;100.00;98983.72;15268470;19;20371;-45
2023/03/03 04:10:22;;;;;;;162.88;33.10;;;;;;;-1.81;100.00;98997.94;15292256;19;20415;-46
2023/03/03 04:15:49;;;;;;;568.17;42.40;;;;;;;-1.81;100.00;98997.06;15281203;19;20621;-48
2023/03/03 04:21:17;;;;;;;387.20;39.53;;;;;;;-1.76;100.00;99010.94;15284770;19;20608;-47
2023/03/03 04:26:42;;;;;;;341.17;39.85;;;;;;;-1.72;100.00;99013.38;15291413;19;20039;-49
2023/03/03 04:32:07;;;;;;;359.42;38.55;;;;;;;-1.77;100.00;99014.50;15312258;19;20531;-47
2023/03/03 04:37:35;;;;;;;477.08;41.47;;;;;;;-1.81;100.00;99015.53;15283850;19;20023;-48
2023/03/03 04:43:00;;;;;;;397.88;38.08;;;;;;;-1.82;100.00;99027.06;15277465;19;20014;-46
2023/03/03 04:48:25;;;;;;;249.20;34.08;;;;;;;-1.88;100.00;99023.75;15276007;19;20792;-46
2023/03/03 04:53:53;;;;;;;478.48;34.90;;;;;;;-1.93;100.00;99035.44;15283769;19;20025;-46
2023/03/03 04:59:18;;;;;;;397.73;37.17;;;;;;;-2.06;100.00;99046.53;15282574;19;20006;-46
2023/03/03 05:04:50;;;;;;;481.08;38.97;;;;;;;-2.12;100.00;99053.88;15286056;19;20022;-46
2023/03/03 05:10:17;;;;;;;493.77;37.50;;;;;;;-2.19;100.00;99054.16;15286236;19;20044;-47
2023/03/03 05:15:42;;;;;;;361.77;36.15;;;;;;;-2.30;100.00;99053.75;15283932;19;20018;-47
2023/03/03 05:21:08;;;;;;;450.83;39.35;;;;;;;-2.31;100.00;99065.22;15282788;19;20015;-45
2023/03/03 05:26:36;;;;;;;356.30;44.10;;;;;;;-2.40;100.00;99076.13;15290494;19;20077;-46
2023/03/03 05:32:01;;;;;;;408.42;38.50;;;;;;;-2.46;100.00;99074.59;15283239;19;20055;-48
2023/03/03 05:37:26;;;;;;;254.48;37.67;;;;;;;-2.48;100.00;99077.31;15286946;19;20018;-45
2023/03/03 05:42:53;;;;;;;299.63;38.33;;;;;;;-2.51;100.00;99085.34;15283100;19;20025;-45
2023/03/03 05:48:18;;;;;;;223.85;37.08;;;;;;;-2.45;100.00;99088.69;15288603;19;20013;-45
2023/03/03 05:53:42;;;;;;;264.73;37.97;;;;;;;-2.38;100.00;99098.03;15280335;19;20489;-48
2023/03/03 05:59:10;;;;;;;137.00;32.08;;;;;;;-2.35;100.00;99087.38;15282721;19;20014;-45
2023/03/03 06:04:41;;;;;;;99.97;30.65;;;;;;;-2.29;100.00;99100.28;15284071;19;20031;-45
2023/03/03 06:10:06;;;;;;;102.45;25.35;;;;;;;-2.34;100.00;99105.78;15287731;19;20074;-45
2023/03/03 06:15:37;;;;;;;96.57;22.83;;;;;;;-2.40;100.00;99113.06;15282970;19;20035;-48
2023/03/03 06:21:02;;;;;;;102.20;23.77;;;;;;;-2.43;100.00;99100.03;15284199;19;20092;-47
2023/03/03 06:26:27;;;;;;;69.63;20.85;;;;;;;-2.34;100.00;99104.94;15283755;19;20078;-46
2023/03/03 06:31:54;;;;;;;97.88;20.08;;;;;;;-2.29;100.00;99117.94;15282541;19;20019;-45
2023/03/03 06:37:20;;;;;;;69.45;19.67;;;;;;;-2.23;100.00;99115.91;15284455;19;20090;-46
2023/03/03 06:42:44;;;;;;;52.08;18.40;;;;;;;-2.18;100.00;99121.88;15282966;19;20478;-45
2023/03/03 06:48:11;;;;;;;65.40;15.18;;;;;;;-2.27;100.00;99109.03;15286585;19;20021;-46
2023/03/03 06:53:36;;;;;;;57.95;12.65;;;;;;;-2.27;100.00;99109.03;15281790;19;20016;-46
2023/03/03 06:59:04;;;;;;;53.35;12.18;;;;;;;-2.22;100.00;99119.38;15275703;19;20086;-45
2023/03/03 07:04:34;;;;;;;42.95;10.52;;;;;;;-2.23;100.00;99123.81;15275909;19;20027;-47
2023/03/03 07:10:00;;;;;;;20.55;9.93;;;;;;;-2.18;100.00;99127.16;15290648;19;20019;-45
2023/03/03 07:15:31;;;;;;;13.63;8.70;;;;;;;-2.09;100.00;99117.97;15298652;19;20031;-48
2023/03/03 07:20:59;;;;;;;19.13;8.63;;;;;;;-2.07;100.00;99116.13;15295577;19;20035;-45
2023/03/03 07:26:29;;;;;;;21.88;8.38;;;;;;;-2.13;100.00;99129.59;15297021;19;20014;-46
2023/03/03 07:31:56;;;;;;;18.75;7.85;;;;;;;-2.13;100.00;99134.00;15289998;19;20020;-46
2023/03/03 07:37:32;;;;;;;8.88;6.30;;;;;;;-2.27;100.00;99147.78;15295498;19;20006;-46
2023/03/03 07:42:58;;;;;;;11.80;6.72;;;;;;;-2.37;100.00;99137.59;15293809;19;20409;-46
2023/03/03 07:48:28;;;;;;;13.90;6.90;;;;;;;-2.38;100.00;99145.53;15296188;19;20010;-44
2023/03/03 07:53:56;;;;;;;11.18;6.63;;;;;;;-2.42;100.00;99147.47;15294419;19;20093;-44
2023/03/03 07:59:24;;;;;;;13.57;7.05;;;;;;;-2.32;100.00;99153.22;15290108;19;20078;-44
2023/03/03 08:04:51;;;;;;;10.38;6.70;;;;;;;-2.41;100.00;99151.81;15293771;19;20019;-44
2023/03/03 08:10:37;;;;;;;9.35;7.25;;;;;;;-2.48;100.00;99151.19;15297463;19;20010;-44
2023/03/03 08:16:08;;;;;;;9.60;6.95;;;;;;;-2.32;100.00;99137.41;15295314;19;20013;-44
2023/03/03 08:21:39;;;;;;;6.88;5.40;;;;;;;-2.20;100.00;99138.66;15293487;19;20019;-44
2023/03/03 08:27:07;;;;;;;10.05;6.00;;;;;;;-2.25;100.00;99130.94;15297506;19;20010;-44
2023/03/03 08:32:33;;;;;;;6.70;5.85;;;;;;;-2.17;100.00;99128.81;15286476;19;20010;-44
2023/03/03 08:37:57;;;;;;;8.05;6.53;;;;;;;-2.06;100.00;99143.41;15291828;19;20074;-44
2023/03/03 08:43:25;;;;;;;8.82;6.65;;;;;;;-2.04;100.00;99158.25;15288852;19;20019;-44
2023/03/03 08:48:50;;;;;;;10.57;6.60;;;;;;;-2.14;100.00;99153.41;15289303;19;20527;-44
2023/03/03 08:54:16;;;;;;;8.95;7.00;;;;;;;-2.02;100.00;99143.19;15286933;19;20566;-44
2023/03/03 08:59:43;;;;;;;9.23;7.20;;;;;;;-2.05;100.00;99151.25;15289563;19;20086;-45
2023/03/03 09:05:08;;;;;;;7.13;6.07;;;;;;;-2.19;100.00;99157.09;15284267;19;20467;-45
2023/03/03 09:10:34;;;;;;;6.53;5.10;;;;;;;-2.28;100.00;99159.25;15290541;19;20475;-45
2023/03/03 09:16:02;;;;;;;5.60;4.75;;;;;;;-2.20;100.00;99155.38;15290211;19;20086;-44
2023/03/03 09:21:32;;;;;;;5.70;5.10;;;;;;;-2.08;100.00;99154.00;15293468;19;20086;-45
2023/03/03 09:26:57;;;;;;;6.95;5.70;;;;;;;-2.11;100.00;99153.28;15291003;19;20010;-44
2023/03/03 09:32:36;;;;;;;7.82;5.72;;;;;;;-2.19;100.00;99135.97;15286096;19;20010;-44
2023/03/03 09:38:02;;;;;;;7.43;5.82;;;;;;;-2.06;100.00;99132.84;15285651;19;20010;-45
2023/03/03 09:43:39;;;;;;;5.75;5.13;;;;;;;-2.01;100.00;99146.69;15286858;19;20014;-45
2023/03/03 09:49:18;;;;;;;5.57;4.97;;;;;;;-1.97;100.00;99132.44;15287775;19;20359;-46
2023/03/03 09:54:54;;;;;;;6.35;5.40;;;;;;;-1.91;100.00;99134.81;15285734;19;20019;-46
2023/03/03 10:00:39;;;;;;;5.75;4.75;;;;;;;-1.75;100.00;99140.28;15285718;19;20094;-47
2023/03/03 10:06:22;;;;;;;5.00;4.43;;;;;;;-1.62;100.00;99135.34;15285231;19;20419;-47
2023/03/03 10:11:52;;;;;;;6.18;5.43;;;;;;;-1.40;100.00;99127.31;15282064;19;20090;-45
2023/03/03 10:17:34;;;;;;;7.10;6.27;;;;;;;-1.27;100.00;99135.59;15287006;19;20036;-45
2023/03/03 10:23:19;;;;;;;6.60;5.90;;;;;;;-1.18;100.00;99129.03;15284958;19;20463;-46
2023/03/03 10:29:16;;;;;;;6.43;5.70;;;;;;;-1.16;100.00;99126.31;15287147;19;20039;-45
2023/03/03 10:34:56;;;;;;;6.65;5.95;;;;;;;-1.10;100.00;99104.84;15282357;19;20089;-44
2023/03/03 10:40:34;;;;;;;238.15;212.95;;;;;;;-1.07;100.00;99104.72;15282306;19;20007;-44
2023/03/03 10:46:13;;;;;;;8.63;7.53;;;;;;;-1.12;100.00;99096.16;15293660;19;20014;-44
2023/03/03 10:51:46;;;;;;;7.68;6.88;;;;;;;-0.95;100.00;99106.78;15298022;19;20078;-45
2023/03/03 10:57:21;;;;;;;8.52;7.35;;;;;;;-0.99;100.00;99107.00;15299609;19;20032;-45
2023/03/03 11:02:58;;;;;;;8.40;7.32;;;;;;;-0.91;100.00;99104.00;15274186;19;20090;-47
2023/03/03 11:08:28;;;;;;;7.85;6.80;;;;;;;-0.93;100.00;99097.00;15300512;19;20352;-48
2023/03/03 11:14:04;;;;;;;7.97;6.70;;;;;;;-0.93;100.00;99106.72;15289238;19;20090;-45
2023/03/03 11:19:55;;;;;;;8.10;7.30;;;;;;;-0.81;100.00;99084.13;15293594;19;20017;-46
2023/03/03 11:25:36;;;;;;;10.05;8.48;;;;;;;-0.79;100.00;99091.06;15293414;19;20018;-47
2023/03/03 11:31:15;;;;;;;8.95;8.00;;;;;;;-0.64;100.00;99096.56;15299426;19;20018;-47
2023/03/03 11:36:43;;;;;;;8.77;7.32;;;;;;;-0.56;100.00;99096.19;15299030;19;20014;-45
2023/03/03 11:42:20;;;;;;;8.23;7.32;;;;;;;-0.55;100.00;99088.16;15294889;19;20390;-48
2023/03/03 11:48:05;;;;;;;8.93;7.57;;;;;;;-0.59;100.00;99077.81;15293543;19;20262;-48
2023/03/03 11:53:51;;;;;;;8.32;6.95;;;;;;;-0.44;100.00;99073.53;15292240;19;20024;-47
2023/03/03 11:59:45;;;;;;;8.65;6.97;;;;;;;-0.34;100.00;99064.19;15296696;19;20017;-48
2023/03/03 12:05:21;;;;;;;7.97;6.95;;;;;;;-0.29;100.00;99051.59;15287200;19;20019;-47
2023/03/03 12:10:53;;;;;;;8.65;7.10;;;;;;;-0.37;100.00;99051.97;15295221;19;20031;-45
2023/03/03 12:16:24;;;;;;;10.38;7.72;;;;;;;-0.35;100.00;99054.53;15294830;19;20010;-46
2023/03/03 12:22:10;;;;;;;9.55;8.25;;;;;;;-0.24;100.00;99046.06;15288441;19;20014;-47
2023/03/03 12:27:43;;;;;;;8.48;7.07;;;;;;;-0.05;100.00;99040.69;15293988;19;20011;-47
2023/03/03 12:33:22;;;;;;;7.68;6.40;;;;;;;0.06;100.00;99040.16;15290122;19;20071;-48
2023/03/03 12:38:56;;;;;;;8.35;7.10;;;;;;;0.10;100.00;99039.03;15294104;19;20082;-49
2023/03/03 12:44:30;;;;;;;7.45;6.50;;;;;;;0.06;100.00;99037.50;15305486;19;20031;-48
2023/03/03 12:50:09;;;;;;;8.38;6.68;;;;;;;0.15;100.00;99042.31;15292241;19;20049;-49
2023/03/03 12:55:44;;;;;;;8.98;7.10;;;;;;;0.21;100.00;99031.38;15292079;19;20086;-47
2023/03/03 13:01:27;;;;;;;8.35;6.80;;;;;;;0.24;100.00;99025.06;15287495;19;20024;-44
2023/03/03 13:07:06;;;;;;;8.75;6.75;;;;;;;0.20;100.00;99023.53;15290706;19;20530;-44
2023/03/03 13:12:41;;;;;;;8.60;7.07;;;;;;;0.30;100.00;99019.44;15288453;19;20017;-46
2023/03/03 13:18:29;;;;;;;7.78;6.40;;;;;;;0.40;100.00;99022.47;15291007;19;20010;-47
2023/03/03 13:23:59;;;;;;;7.35;6.50;;;;;;;0.40;100.00;99019.84;15283759;19;20018;-44
2023/03/03 13:29:31;;;;;;;7.88;6.45;;;;;;;0.42;100.00;99021.44;15290277;19;20019;-50
2023/03/03 13:35:03;;;;;;;8.33;6.30;;;;;;;0.49;100.00;99019.31;15287513;19;20018;-46
2023/03/03 13:40:33;;;;;;;8.65;6.80;;;;;;;0.44;100.00;99010.75;15286841;19;20270;-49
2023/03/03 13:46:09;;;;;;;8.45;6.97;;;;;;;0.39;100.00;99004.88;15290863;19;20011;-48
2023/03/03 13:51:45;;;;;;;8.27;6.90;;;;;;;0.38;100.00;99003.16;15290155;19;20070;-47
2023/03/03 13:57:26;;;;;;;8.27;6.88;;;;;;;0.43;100.00;99001.97;15281283;19;20416;-48
2023/03/03 14:03:30;;;;;;;7.07;5.95;;;;;;;0.34;100.00;98994.50;15283680;19;20014;-50
2023/03/03 14:09:14;;;;;;;8.48;6.60;;;;;;;0.38;100.00;98989.88;15287065;19;20022;-46
2023/03/03 14:14:50;;;;;;;7.38;6.18;;;;;;;0.39;100.00;98995.09;15280289;19;20007;-46
2023/03/03 14:20:25;;;;;;;7.35;6.43;;;;;;;0.42;100.00;98988.78;15284762;19;20043;-49
2023/03/03 14:26:06;;;;;;;8.30;6.70;;;;;;;0.48;100.00;98984.94;15299065;19;20076;-48
2023/03/03 14:31:32;;;;;;;7.60;6.45;;;;;;;0.52;100.00;98982.06;15291180;19;20348;-47
2023/03/03 14:36:58;;;;;;;7.53;6.25;;;;;;;0.49;100.00;98974.25;15299530;19;20482;-46
2023/03/03 14:42:43;;;;;;;9.77;7.35;;;;;;;0.42;100.00;98980.81;15295213;19;20354;-51
2023/03/03 14:48:19;;;;;;;8.15;6.60;;;;;;;0.37;100.00;98980.22;15303658;19;20359;-49
2023/03/03 14:53:46;;;;;;;8.82;6.80;;;;;;;0.34;100.00;98973.31;15297210;19;20014;-47
2023/03/03 14:59:30;;;;;;;7.57;6.47;;;;;;;0.32;100.00;98966.34;15295928;19;20018;-47
2023/03/03 15:05:21;;;;;;;8.75;6.70;;;;;;;0.33;100.00;98960.13;15292822;19;20094;-47
2023/03/03 15:10:47;;;;;;;7.97;6.30;;;;;;;0.37;100.00;98962.50;15297192;19;20022;-46
2023/03/03 15:16:20;;;;;;;7.80;6.40;;;;;;;0.37;100.00;98945.78;15298273;19;20570;-47
2023/03/03 15:21:54;;;;;;;7.40;5.80;;;;;;;0.29;100.00;98943.53;15292815;19;20010;-46
2023/03/03 15:27:27;;;;;;;7.57;6.22;;;;;;;0.35;100.00;98943.22;15297423;19;20024;-47
2023/03/03 15:33:00;;;;;;;7.22;5.78;;;;;;;0.33;100.00;98928.31;15286622;19;20014;-46
2023/03/03 15:38:37;;;;;;;5.85;5.13;;;;;;;0.34;100.00;98925.59;15295586;19;20019;-47
2023/03/03 15:44:13;;;;;;;7.65;5.40;;;;;;;0.33;100.00;98925.66;15292186;19;20021;-48
2023/03/03 15:50:02;;;;;;;6.55;5.47;;;;;;;0.34;100.00;98927.38;15296904;19;20017;-50
2023/03/03 15:55:39;;;;;;;7.05;5.30;;;;;;;0.32;100.00;98923.94;15295871;19;20014;-47
2023/03/03 16:01:15;;;;;;;6.57;5.53;;;;;;;0.34;100.00;98925.59;15292898;19;20471;-51
2023/03/03 16:06:58;;;;;;;6.72;5.68;;;;;;;0.33;100.00;98923.00;15285447;19;20637;-48
2023/03/03 16:12:32;;;;;;;6.68;5.53;;;;;;;0.30;100.00;98918.75;15291987;19;20010;-48
2023/03/03 16:18:05;;;;;;;6.55;5.35;;;;;;;0.31;100.00;98917.81;15294889;19;20471;-46
2023/03/03 16:23:47;;;;;;;6.45;5.15;;;;;;;0.24;100.00;98922.59;15289441;19;20349;-48
2023/03/03 16:29:30;;;;;;;6.38;4.95;;;;;;;0.22;100.00;98921.81;15293437;19;20021;-48
2023/03/03 16:34:59;;;;;;;6.40;5.28;;;;;;;0.18;100.00;98937.94;15290414;19;20033;-49
2023/03/03 16:40:31;;;;;;;6.93;5.85;;;;;;;0.14;100.00;98953.16;15283789;19;20021;-47
2023/03/03 16:46:00;;;;;;;5.95;5.18;;;;;;;0.02;100.00;98965.25;15291633;19;20575;-50
2023/03/03 16:51:43;;;;;;;6.60;5.57;;;;;;;0.03;100.00;98958.19;15286606;19;20011;-46
2023/03/03 16:57:22;;;;;;;5.80;5.00;;;;;;;0.03;100.00;98963.47;15285712;19;20077;-49
2023/03/03 17:03:29;;;;;;;6.63;5.40;;;;;;;-0.01;100.00;98963.63;15283121;19;20022;-47
2023/03/03 17:09:21;;;;;;;6.60;5.28;;;;;;;-0.08;100.00;98967.56;15284766;19;20010;-47
2023/03/03 17:15:06;;;;;;;7.78;5.50;;;;;;;-0.05;100.00;98969.19;15284615;19;20016;-49
2023/03/03 17:20:39;;;;;;;6.72;4.82;;;;;;;-0.05;100.00;98977.97;15285874;19;20014;-47
2023/03/03 17:26:17;;;;;;;6.50;5.38;;;;;;;-0.03;100.00;98989.34;15287757;19;20010;-49
2023/03/03 17:31:53;;;;;;;6.20;5.53;;;;;;;-0.10;100.00;98977.38;15281303;19;20085;-48
2023/03/03 17:37:33;;;;;;;6.20;4.88;;;;;;;-0.13;100.00;98987.28;15286492;19;20074;-48
2023/03/03 17:43:06;;;;;;;5.80;4.97;;;;;;;-0.09;100.00;98992.34;15279909;19;20118;-49
2023/03/03 17:48:59;;;;;;;5.93;5.25;;;;;;;-0.09;100.00;98992.34;15288134;19;20074;-48
2023/03/03 17:54:33;;;;;;;7.03;5.60;;;;;;;-0.18;100.00;98992.81;15278906;19;20021;-50
2023/03/03 18:00:20;;;;;;;5.85;5.18;;;;;;;-0.16;100.00;98990.91;15284028;19;20090;-47
2023/03/03 18:06:14;;;;;;;14.93;10.05;;;;;;;-0.21;100.00;98987.66;15279568;19;20018;-48
2023/03/03 18:11:54;;;;;;;5.25;4.53;;;;;;;-0.22;100.00;98989.44;15292229;19;20403;-46
2023/03/03 18:17:35;;;;;;;5.00;4.50;;;;;;;-0.22;100.00;98989.44;15281345;19;20118;-46
2023/03/03 18:23:03;;;;;;;5.03;4.32;;;;;;;-0.28;100.00;98997.72;15281974;19;20014;-46
2023/03/03 18:28:45;;;;;;;4.93;4.20;;;;;;;-0.28;100.00;99002.13;15286320;19;20077;-45
2023/03/03 18:34:15;;;;;;;5.03;4.40;;;;;;;-0.24;100.00;98998.41;15280961;19;20082;-47
2023/03/03 18:39:47;;;;;;;5.13;4.30;;;;;;;-0.29;100.00;99003.94;15283802;19;20018;-49
2023/03/03 18:45:45;;;;;;;4.70;4.28;;;;;;;-0.26;100.00;99003.78;15277362;19;20078;-45
2023/03/03 18:51:10;;;;;;;4.63;4.22;;;;;;;-0.28;100.00;98991.53;15282566;19;20102;-50
2023/03/03 18:56:55;;;;;;;6.43;4.10;;;;;;;-0.35;100.00;98988.34;15284749;19;20739;-47
2023/03/03 19:02:30;;;;;;;5.50;4.35;;;;;;;-0.36;100.00;99006.03;15277896;19;20201;-48
2023/03/03 19:08:00;;;;;;;4.60;4.10;;;;;;;-0.40;100.00;99008.94;15294851;19;20011;-46
2023/03/03 19:13:45;;;;;;;5.18;4.57;;;;;;;-0.42;100.00;99003.72;15293801;19;20026;-48
2023/03/03 19:19:16;;;;;;;5.95;4.40;;;;;;;-0.41;100.00;99007.22;15292193;19;20010;-48
2023/03/03 19:24:41;;;;;;;5.20;4.70;;;;;;;-0.42;100.00;99001.06;15296299;19;20040;-48
2023/03/03 19:30:28;;;;;;;5.45;4.95;;;;;;;-0.45;100.00;99011.81;15295351;19;20015;-46
2023/03/03 19:36:16;;;;;;;5.30;4.80;;;;;;;-0.48;100.00;99012.84;15296828;19;20010;-46
2023/03/03 19:41:59;;;;;;;5.60;5.07;;;;;;;-0.45;100.00;99005.66;15291774;19;20048;-46
2023/03/03 19:47:38;;;;;;;5.70;4.80;;;;;;;-0.48;100.00;99011.97;15295661;19;20078;-50
2023/03/03 19:53:13;;;;;;;5.38;4.88;;;;;;;-0.48;100.00;99006.66;15280620;19;20018;-49
2023/03/03 19:58:48;;;;;;;5.57;5.07;;;;;;;-0.52;100.00;99010.38;15295172;19;20099;-50
2023/03/03 20:04:27;;;;;;;4.88;4.18;;;;;;;-0.50;100.00;99008.53;15285207;19;20011;-47
2023/03/03 20:10:00;;;;;;;4.80;4.28;;;;;;;-0.50;100.00;98995.28;15295605;19;20359;-51
2023/03/03 20:15:28;;;;;;;5.10;4.63;;;;;;;-0.49;100.00;99002.28;15287404;19;20809;-46
2023/03/03 20:21:09;;;;;;;5.10;4.70;;;;;;;-0.52;100.00;99000.66;15294641;19;20007;-47
2023/03/03 20:26:39;;;;;;;4.95;4.55;;;;;;;-0.50;100.00;99001.44;15290964;19;20013;-47
2023/03/03 20:32:13;;;;;;;5.00;4.60;;;;;;;-0.43;100.00;99009.06;15295161;19;20011;-46
2023/03/03 20:37:52;;;;;;;5.28;4.78;;;;;;;-0.46;100.00;99004.81;15293234;19;20014;-46
2023/03/03 20:43:36;;;;;;;5.45;4.90;;;;;;;-0.41;100.00;99007.22;15288768;19;20029;-47
2023/03/03 20:49:12;;;;;;;5.78;5.18;;;;;;;-0.39;100.00;99000.91;15294160;19;20039;-47
2023/03/03 20:54:47;;;;;;;6.00;5.50;;;;;;;-0.34;100.00;98998.00;15285616;19;20082;-48
2023/03/03 21:00:20;;;;;;;5.93;5.40;;;;;;;-0.33;100.00;98999.72;15291270;19;20035;-50
2023/03/03 21:06:06;;;;;;;5.72;5.22;;;;;;;-0.32;100.00;98991.72;15289672;19;20018;-48
2023/03/03 21:11:45;;;;;;;6.07;5.47;;;;;;;-0.35;100.00;99010.41;15292482;19;20117;-46
2023/03/03 21:17:34;;;;;;;6.22;5.63;;;;;;;-0.36;100.00;98995.47;15290577;19;20011;-52
2023/03/03 21:23:00;;;;;;;5.95;5.40;;;;;;;-0.35;100.00;98997.16;15286477;19;20082;-46
2023/03/03 21:28:31;;;;;;;5.97;5.47;;;;;;;-0.32;100.00;98993.50;15287231;19;20021;-47
2023/03/03 21:33:58;;;;;;;6.25;5.65;;;;;;;-0.37;100.00;98995.53;15286216;19;20478;-46
2023/03/03 21:39:53;;;;;;;6.20;5.60;;;;;;;-0.35;100.00;98993.66;15289718;19;20050;-45
2023/03/03 21:45:22;;;;;;;6.30;5.70;;;;;;;-0.31;100.00;98987.28;15286256;19;20070;-46
2023/03/03 21:50:48;;;;;;;6.85;6.15;;;;;;;-0.21;100.00;98987.66;15289279;19;20477;-45
2023/03/03 21:56:15;;;;;;;6.82;6.18;;;;;;;-0.11;100.00;98988.91;15288674;19;20377;-46
2023/03/03 22:01:42;;;;;;;6.32;5.72;;;;;;;-0.13;100.00;98982.81;15279703;19;20010;-47
2023/03/03 22:07:13;;;;;;;7.22;6.50;;;;;;;-0.11;100.00;98980.94;15285863;19;20010;-46
2023/03/03 22:12:37;;;;;;;7.20;6.50;;;;;;;-0.13;100.00;98974.03;15285021;19;20048;-49
2023/03/03 22:18:05;;;;;;;7.53;6.72;;;;;;;-0.12;100.00;98986.34;15286859;19;20366;-48
2023/03/03 22:23:29;;;;;;;7.20;6.47;;;;;;;-0.16;100.00;98969.72;15282852;19;20022;-51
2023/03/03 22:28:54;;;;;;;7.75;7.05;;;;;;;-0.12;100.00;98967.81;15291515;19;20015;-51
2023/03/03 22:34:14;;;;;;;7.43;6.60;;;;;;;-0.08;100.00;98970.22;15288490;19;20023;-48
2023/03/03 22:39:40;;;;;;;7.32;6.60;;;;;;;-0.10;100.00;98964.13;15291635;19;20010;-48
2023/03/03 22:45:04;;;;;;;8.40;7.45;;;;;;;-0.11;100.00;98969.47;15295312;19;20645;-46
2023/03/03 22:50:31;;;;;;;9.48;7.50;;;;;;;-0.19;100.00;98964.63;15301354;19;20010;-49
2023/03/03 22:55:56;;;;;;;8.52;7.63;;;;;;;-0.22;100.00;98959.47;15300449;19;20545;-51
2023/03/03 23:01:21;;;;;;;8.88;7.82;;;;;;;-0.24;100.00;98954.25;15297593;19;20357;-48
2023/03/03 23:06:56;;;;;;;8.63;7.72;;;;;;;-0.16;100.00;98951.19;15287485;19;20022;-51
2023/03/03 23:12:21;;;;;;;9.25;8.25;;;;;;;-0.22;100.00;98954.16;15297351;19;20021;-46
2023/03/03 23:17:45;;;;;;;10.15;8.35;;;;;;;-0.26;100.00;98952.59;15301463;19;20019;-47
2023/03/03 23:23:12;;;;;;;11.15;9.15;;;;;;;-0.25;100.00;98957.84;15296236;19;20024;-48
2023/03/03 23:28:37;;;;;;;10.05;8.93;;;;;;;-0.23;100.00;98952.47;15298260;19;20010;-46
2023/03/03 23:34:02;;;;;;;10.10;8.43;;;;;;;-0.27;100.00;98950.91;15294940;19;20015;-45
2023/03/03 23:39:29;;;;;;;9.68;8.60;;;;;;;-0.34;100.00;98940.63;15294117;19;20015;-46
2023/03/03 23:44:54;;;;;;;9.30;8.30;;;;;;;-0.27;100.00;98942.94;15292553;19;20060;-44
2023/03/03 23:50:21;;;;;;;10.20;9.10;;;;;;;-0.32;100.00;98933.47;15298343;19;20025;-44
2023/03/03 23:55:48;;;;;;;10.07;8.68;;;;;;;-0.30;100.00;98937.84;15297843;19;20029;-47
